sensor_id;sensor_type;location;lat;lon;timestamp;P1;durP1;ratioP1;P2;durP2;ratioP2
23078;SDS011;11707;50.830;4.364;2023-12-04T00:01:57;11.02;;;6.03;;
23078;SDS011;11707;50.830;4.364;2023-12-04T00:04:23;9.73;;;5.20;;
23078;SDS011;11707;50.830;4.364;2023-12-04T00:06:51;11.23;;;5.78;;
23078;SDS011;11707;50.830;4.364;2023-12-04T00:09:17;10.05;;;5.78;;
23078;SDS011;11707;50.830;4.364;2023-12-04T00:11:42;10.48;;;5.90;;
23078;SDS011;11707;50.830;4.364;2023-12-04T00:14:08;10.23;;;5.78;;
23078;SDS011;11707;50.830;4.364;2023-12-04T00:16:34;10.00;;;6.20;;
23078;SDS011;11707;50.830;4.364;2023-12-04T00:19:05;11.45;;;5.82;;
23078;SDS011;11707;50.830;4.364;2023-12-04T00:21:31;9.95;;;5.32;;
23078;SDS011;11707;50.830;4.364;2023-12-04T00:23:57;10.80;;;5.75;;
23078;SDS011;11707;50.830;4.364;2023-12-04T00:26:23;9.73;;;5.95;;
23078;SDS011;11707;50.830;4.364;2023-12-04T00:28:49;10.95;;;5.38;;
23078;SDS011;11707;50.830;4.364;2023-12-04T00:31:14;9.15;;;5.05;;
23078;SDS011;11707;50.830;4.364;2023-12-04T00:33:40;9.65;;;5.65;;
23078;SDS011;11707;50.830;4.364;2023-12-04T00:36:06;11.38;;;5.35;;
23078;SDS011;11707;50.830;4.364;2023-12-04T00:38:32;8.30;;;5.00;;
23078;SDS011;11707;50.830;4.364;2023-12-04T00:40:57;9.55;;;5.78;;
23078;SDS011;11707;50.830;4.364;2023-12-04T00:43:23;9.15;;;5.38;;
23078;SDS011;11707;50.830;4.364;2023-12-04T00:45:49;10.05;;;5.55;;
23078;SDS011;11707;50.830;4.364;2023-12-04T00:48:14;11.10;;;5.75;;
23078;SDS011;11707;50.830;4.364;2023-12-04T00:50:45;9.93;;;6.07;;
23078;SDS011;11707;50.830;4.364;2023-12-04T00:53:11;8.68;;;4.72;;
23078;SDS011;11707;50.830;4.364;2023-12-04T00:55:36;9.82;;;4.95;;
23078;SDS011;11707;50.830;4.364;2023-12-04T00:58:04;8.52;;;5.15;;
23078;SDS011;11707;50.830;4.364;2023-12-04T01:00:32;9.13;;;5.60;;
23078;SDS011;11707;50.830;4.364;2023-12-04T01:03:00;8.50;;;5.00;;
23078;SDS011;11707;50.830;4.364;2023-12-04T01:05:28;10.20;;;5.65;;
23078;SDS011;11707;50.830;4.364;2023-12-04T01:07:54;8.77;;;4.95;;
23078;SDS011;11707;50.830;4.364;2023-12-04T01:10:20;8.65;;;4.68;;
23078;SDS011;11707;50.830;4.364;2023-12-04T01:12:46;10.52;;;5.47;;
23078;SDS011;11707;50.830;4.364;2023-12-04T01:15:11;8.02;;;5.03;;
23078;SDS011;11707;50.830;4.364;2023-12-04T01:17:37;8.25;;;4.68;;
23078;SDS011;11707;50.830;4.364;2023-12-04T01:20:03;9.38;;;5.05;;
23078;SDS011;11707;50.830;4.364;2023-12-04T01:22:31;9.02;;;5.15;;
23078;SDS011;11707;50.830;4.364;2023-12-04T01:24:57;9.02;;;5.22;;
23078;SDS011;11707;50.830;4.364;2023-12-04T01:27:22;7.15;;;3.90;;
23078;SDS011;11707;50.830;4.364;2023-12-04T01:29:50;9.20;;;4.75;;
23078;SDS011;11707;50.830;4.364;2023-12-04T01:32:19;9.68;;;5.30;;
23078;SDS011;11707;50.830;4.364;2023-12-04T01:34:44;6.38;;;3.83;;
23078;SDS011;11707;50.830;4.364;2023-12-04T01:37:10;6.13;;;3.75;;
23078;SDS011;11707;50.830;4.364;2023-12-04T01:39:39;6.97;;;3.70;;
23078;SDS011;11707;50.830;4.364;2023-12-04T01:42:09;7.28;;;3.97;;
23078;SDS011;11707;50.830;4.364;2023-12-04T01:44:35;9.18;;;4.97;;
23078;SDS011;11707;50.830;4.364;2023-12-04T01:47:02;7.47;;;4.18;;
23078;SDS011;11707;50.830;4.364;2023-12-04T01:49:28;8.02;;;4.68;;
23078;SDS011;11707;50.830;4.364;2023-12-04T01:51:58;7.85;;;4.38;;
23078;SDS011;11707;50.830;4.364;2023-12-04T01:54:23;7.25;;;4.45;;
23078;SDS011;11707;50.830;4.364;2023-12-04T01:56:50;7.47;;;4.22;;
23078;SDS011;11707;50.830;4.364;2023-12-04T01:59:16;5.68;;;3.58;;
23078;SDS011;11707;50.830;4.364;2023-12-04T02:01:45;6.88;;;4.03;;
23078;SDS011;11707;50.830;4.364;2023-12-04T02:04:10;7.05;;;3.60;;
23078;SDS011;11707;50.830;4.364;2023-12-04T02:06:36;6.97;;;4.13;;
23078;SDS011;11707;50.830;4.364;2023-12-04T02:09:05;6.85;;;3.58;;
23078;SDS011;11707;50.830;4.364;2023-12-04T02:11:32;8.40;;;3.55;;
23078;SDS011;11707;50.830;4.364;2023-12-04T02:13:57;9.02;;;4.20;;
23078;SDS011;11707;50.830;4.364;2023-12-04T02:16:26;6.97;;;4.38;;
23078;SDS011;11707;50.830;4.364;2023-12-04T02:18:55;5.40;;;3.65;;
23078;SDS011;11707;50.830;4.364;2023-12-04T02:21:21;7.07;;;3.67;;
23078;SDS011;11707;50.830;4.364;2023-12-04T02:23:50;5.07;;;3.10;;
23078;SDS011;11707;50.830;4.364;2023-12-04T02:26:17;7.82;;;3.83;;
23078;SDS011;11707;50.830;4.364;2023-12-04T02:28:49;7.15;;;3.63;;
23078;SDS011;11707;50.830;4.364;2023-12-04T02:31:19;7.93;;;4.25;;
23078;SDS011;11707;50.830;4.364;2023-12-04T02:33:48;6.70;;;3.92;;
23078;SDS011;11707;50.830;4.364;2023-12-04T02:36:18;6.65;;;4.30;;
23078;SDS011;11707;50.830;4.364;2023-12-04T02:38:45;5.85;;;3.58;;
23078;SDS011;11707;50.830;4.364;2023-12-04T02:41:10;5.55;;;3.40;;
23078;SDS011;11707;50.830;4.364;2023-12-04T02:43:36;6.03;;;3.72;;
23078;SDS011;11707;50.830;4.364;2023-12-04T02:46:05;6.72;;;3.40;;
23078;SDS011;11707;50.830;4.364;2023-12-04T02:48:30;5.55;;;3.28;;
23078;SDS011;11707;50.830;4.364;2023-12-04T02:50:56;5.63;;;3.35;;
23078;SDS011;11707;50.830;4.364;2023-12-04T02:53:24;7.47;;;3.90;;
23078;SDS011;11707;50.830;4.364;2023-12-04T02:55:52;7.45;;;3.85;;
23078;SDS011;11707;50.830;4.364;2023-12-04T02:58:20;6.13;;;3.38;;
23078;SDS011;11707;50.830;4.364;2023-12-04T03:00:46;7.05;;;3.75;;
23078;SDS011;11707;50.830;4.364;2023-12-04T03:03:12;5.70;;;3.90;;
23078;SDS011;11707;50.830;4.364;2023-12-04T03:05:37;6.80;;;3.90;;
23078;SDS011;11707;50.830;4.364;2023-12-04T03:08:03;7.93;;;4.13;;
23078;SDS011;11707;50.830;4.364;2023-12-04T03:10:31;6.10;;;3.45;;
23078;SDS011;11707;50.830;4.364;2023-12-04T03:12:57;6.93;;;3.85;;
23078;SDS011;11707;50.830;4.364;2023-12-04T03:15:22;5.25;;;3.38;;
23078;SDS011;11707;50.830;4.364;2023-12-04T03:17:48;6.40;;;3.95;;
23078;SDS011;11707;50.830;4.364;2023-12-04T03:20:14;5.85;;;3.58;;
23078;SDS011;11707;50.830;4.364;2023-12-04T03:22:39;8.80;;;4.22;;
23078;SDS011;11707;50.830;4.364;2023-12-04T03:25:05;8.65;;;3.72;;
23078;SDS011;11707;50.830;4.364;2023-12-04T03:27:33;8.63;;;3.17;;
23078;SDS011;11707;50.830;4.364;2023-12-04T03:30:01;5.05;;;3.30;;
23078;SDS011;11707;50.830;4.364;2023-12-04T03:32:30;6.53;;;3.72;;
23078;SDS011;11707;50.830;4.364;2023-12-04T03:34:55;6.28;;;3.53;;
23078;SDS011;11707;50.830;4.364;2023-12-04T03:37:24;5.40;;;3.80;;
23078;SDS011;11707;50.830;4.364;2023-12-04T03:39:50;7.82;;;3.60;;
23078;SDS011;11707;50.830;4.364;2023-12-04T03:42:18;6.30;;;3.70;;
23078;SDS011;11707;50.830;4.364;2023-12-04T03:44:46;5.82;;;3.75;;
23078;SDS011;11707;50.830;4.364;2023-12-04T03:47:11;8.40;;;3.78;;
23078;SDS011;11707;50.830;4.364;2023-12-04T03:49:37;5.00;;;3.35;;
23078;SDS011;11707;50.830;4.364;2023-12-04T03:52:03;6.70;;;4.00;;
23078;SDS011;11707;50.830;4.364;2023-12-04T03:54:29;8.55;;;4.32;;
23078;SDS011;11707;50.830;4.364;2023-12-04T03:56:55;6.65;;;3.42;;
23078;SDS011;11707;50.830;4.364;2023-12-04T03:59:20;7.65;;;4.22;;
23078;SDS011;11707;50.830;4.364;2023-12-04T04:01:46;8.88;;;4.15;;
23078;SDS011;11707;50.830;4.364;2023-12-04T04:04:12;7.00;;;4.00;;
23078;SDS011;11707;50.830;4.364;2023-12-04T04:06:38;6.07;;;3.22;;
23078;SDS011;11707;50.830;4.364;2023-12-04T04:09:04;9.02;;;4.15;;
23078;SDS011;11707;50.830;4.364;2023-12-04T04:11:30;5.53;;;3.58;;
23078;SDS011;11707;50.830;4.364;2023-12-04T04:13:56;5.82;;;3.55;;
23078;SDS011;11707;50.830;4.364;2023-12-04T04:16:22;4.88;;;3.17;;
23078;SDS011;11707;50.830;4.364;2023-12-04T04:18:47;7.13;;;3.97;;
23078;SDS011;11707;50.830;4.364;2023-12-04T04:21:13;5.53;;;3.47;;
23078;SDS011;11707;50.830;4.364;2023-12-04T04:23:39;6.57;;;4.00;;
23078;SDS011;11707;50.830;4.364;2023-12-04T04:26:04;6.38;;;3.45;;
23078;SDS011;11707;50.830;4.364;2023-12-04T04:28:33;7.15;;;3.55;;
23078;SDS011;11707;50.830;4.364;2023-12-04T04:31:01;6.40;;;3.53;;
23078;SDS011;11707;50.830;4.364;2023-12-04T04:33:30;6.50;;;3.58;;
23078;SDS011;11707;50.830;4.364;2023-12-04T04:35:55;9.27;;;4.28;;
23078;SDS011;11707;50.830;4.364;2023-12-04T04:38:21;5.50;;;3.40;;
23078;SDS011;11707;50.830;4.364;2023-12-04T04:40:47;5.43;;;3.55;;
23078;SDS011;11707;50.830;4.364;2023-12-04T04:43:13;4.85;;;3.10;;
23078;SDS011;11707;50.830;4.364;2023-12-04T04:45:39;5.43;;;3.33;;
23078;SDS011;11707;50.830;4.364;2023-12-04T04:48:05;4.50;;;2.75;;
23078;SDS011;11707;50.830;4.364;2023-12-04T04:50:30;6.60;;;2.90;;
23078;SDS011;11707;50.830;4.364;2023-12-04T04:52:56;5.40;;;2.97;;
23078;SDS011;11707;50.830;4.364;2023-12-04T04:55:22;5.13;;;2.85;;
23078;SDS011;11707;50.830;4.364;2023-12-04T04:57:47;6.30;;;3.33;;
23078;SDS011;11707;50.830;4.364;2023-12-04T05:00:13;4.82;;;3.20;;
23078;SDS011;11707;50.830;4.364;2023-12-04T05:02:41;5.72;;;3.38;;
23078;SDS011;11707;50.830;4.364;2023-12-04T05:05:07;5.82;;;3.80;;
23078;SDS011;11707;50.830;4.364;2023-12-04T05:07:32;5.72;;;3.03;;
23078;SDS011;11707;50.830;4.364;2023-12-04T05:09:59;5.57;;;3.25;;
23078;SDS011;11707;50.830;4.364;2023-12-04T05:12:27;5.18;;;2.85;;
23078;SDS011;11707;50.830;4.364;2023-12-04T05:14:55;4.70;;;3.05;;
23078;SDS011;11707;50.830;4.364;2023-12-04T05:17:21;7.25;;;2.83;;
23078;SDS011;11707;50.830;4.364;2023-12-04T05:19:46;4.75;;;2.83;;
23078;SDS011;11707;50.830;4.364;2023-12-04T05:22:12;8.23;;;3.13;;
23078;SDS011;11707;50.830;4.364;2023-12-04T05:24:38;5.65;;;2.65;;
23078;SDS011;11707;50.830;4.364;2023-12-04T05:27:03;4.82;;;2.90;;
23078;SDS011;11707;50.830;4.364;2023-12-04T05:29:29;5.63;;;2.80;;
23078;SDS011;11707;50.830;4.364;2023-12-04T05:31:57;5.03;;;2.70;;
23078;SDS011;11707;50.830;4.364;2023-12-04T05:34:23;4.38;;;2.50;;
23078;SDS011;11707;50.830;4.364;2023-12-04T05:36:49;8.80;;;3.10;;
23078;SDS011;11707;50.830;4.364;2023-12-04T05:39:17;4.80;;;2.75;;
23078;SDS011;11707;50.830;4.364;2023-12-04T05:41:42;9.52;;;2.70;;
23078;SDS011;11707;50.830;4.364;2023-12-04T05:44:11;5.25;;;2.83;;
23078;SDS011;11707;50.830;4.364;2023-12-04T05:46:39;4.78;;;2.25;;
23078;SDS011;11707;50.830;4.364;2023-12-04T05:49:05;3.72;;;2.33;;
23078;SDS011;11707;50.830;4.364;2023-12-04T05:51:30;5.38;;;2.65;;
23078;SDS011;11707;50.830;4.364;2023-12-04T05:53:56;5.35;;;2.80;;
23078;SDS011;11707;50.830;4.364;2023-12-04T05:56:22;3.72;;;2.08;;
23078;SDS011;11707;50.830;4.364;2023-12-04T05:58:47;5.55;;;2.97;;
23078;SDS011;11707;50.830;4.364;2023-12-04T06:01:14;5.47;;;2.97;;
23078;SDS011;11707;50.830;4.364;2023-12-04T06:03:40;3.70;;;2.40;;
23078;SDS011;11707;50.830;4.364;2023-12-04T06:06:06;4.57;;;2.50;;
23078;SDS011;11707;50.830;4.364;2023-12-04T06:08:32;7.35;;;3.28;;
23078;SDS011;11707;50.830;4.364;2023-12-04T06:10:58;6.68;;;3.10;;
23078;SDS011;11707;50.830;4.364;2023-12-04T06:13:23;4.35;;;2.55;;
23078;SDS011;11707;50.830;4.364;2023-12-04T06:15:50;5.28;;;3.00;;
23078;SDS011;11707;50.830;4.364;2023-12-04T06:18:18;9.80;;;3.30;;
23078;SDS011;11707;50.830;4.364;2023-12-04T06:20:45;4.80;;;3.22;;
23078;SDS011;11707;50.830;4.364;2023-12-04T06:23:14;5.63;;;2.85;;
23078;SDS011;11707;50.830;4.364;2023-12-04T06:25:40;10.35;;;3.72;;
23078;SDS011;11707;50.830;4.364;2023-12-04T06:28:07;4.18;;;2.78;;
23078;SDS011;11707;50.830;4.364;2023-12-04T06:30:35;8.05;;;3.78;;
23078;SDS011;11707;50.830;4.364;2023-12-04T06:33:01;6.65;;;2.88;;
23078;SDS011;11707;50.830;4.364;2023-12-04T06:35:27;5.38;;;3.38;;
23078;SDS011;11707;50.830;4.364;2023-12-04T06:37:55;4.70;;;2.80;;
23078;SDS011;11707;50.830;4.364;2023-12-04T06:40:23;6.82;;;3.38;;
23078;SDS011;11707;50.830;4.364;2023-12-04T06:42:49;5.97;;;3.42;;
23078;SDS011;11707;50.830;4.364;2023-12-04T06:45:15;8.10;;;4.07;;
23078;SDS011;11707;50.830;4.364;2023-12-04T06:47:41;5.47;;;3.05;;
23078;SDS011;11707;50.830;4.364;2023-12-04T06:50:12;7.40;;;3.42;;
23078;SDS011;11707;50.830;4.364;2023-12-04T06:52:38;5.03;;;3.13;;
23078;SDS011;11707;50.830;4.364;2023-12-04T06:55:04;5.55;;;3.47;;
23078;SDS011;11707;50.830;4.364;2023-12-04T06:57:30;5.00;;;2.95;;
23078;SDS011;11707;50.830;4.364;2023-12-04T06:59:56;6.82;;;3.58;;
23078;SDS011;11707;50.830;4.364;2023-12-04T07:02:21;4.70;;;2.92;;
23078;SDS011;11707;50.830;4.364;2023-12-04T07:04:47;6.32;;;3.53;;
23078;SDS011;11707;50.830;4.364;2023-12-04T07:07:15;6.15;;;2.95;;
23078;SDS011;11707;50.830;4.364;2023-12-04T07:09:41;8.43;;;3.63;;
23078;SDS011;11707;50.830;4.364;2023-12-04T07:12:09;5.20;;;3.40;;
23078;SDS011;11707;50.830;4.364;2023-12-04T07:14:34;9.50;;;3.17;;
23078;SDS011;11707;50.830;4.364;2023-12-04T07:17:02;10.70;;;3.75;;
23078;SDS011;11707;50.830;4.364;2023-12-04T07:19:28;6.43;;;3.78;;
23078;SDS011;11707;50.830;4.364;2023-12-04T07:21:55;7.20;;;3.50;;
23078;SDS011;11707;50.830;4.364;2023-12-04T07:24:20;5.00;;;3.60;;
23078;SDS011;11707;50.830;4.364;2023-12-04T07:26:46;9.32;;;4.38;;
23078;SDS011;11707;50.830;4.364;2023-12-04T07:29:12;5.43;;;3.10;;
23078;SDS011;11707;50.830;4.364;2023-12-04T07:31:37;6.15;;;3.42;;
23078;SDS011;11707;50.830;4.364;2023-12-04T07:34:03;6.00;;;3.47;;
23078;SDS011;11707;50.830;4.364;2023-12-04T07:36:31;6.40;;;3.78;;
23078;SDS011;11707;50.830;4.364;2023-12-04T07:38:57;5.97;;;3.08;;
23078;SDS011;11707;50.830;4.364;2023-12-04T07:41:23;6.55;;;3.70;;
23078;SDS011;11707;50.830;4.364;2023-12-04T07:43:49;5.57;;;3.95;;
23078;SDS011;11707;50.830;4.364;2023-12-04T07:46:14;4.45;;;3.40;;
23078;SDS011;11707;50.830;4.364;2023-12-04T07:48:42;6.13;;;3.55;;
23078;SDS011;11707;50.830;4.364;2023-12-04T07:51:11;5.60;;;3.38;;
23078;SDS011;11707;50.830;4.364;2023-12-04T07:53:37;6.15;;;3.70;;
23078;SDS011;11707;50.830;4.364;2023-12-04T07:56:03;5.82;;;3.95;;
23078;SDS011;11707;50.830;4.364;2023-12-04T07:58:30;9.07;;;3.78;;
23078;SDS011;11707;50.830;4.364;2023-12-04T08:00:56;6.50;;;3.92;;
23078;SDS011;11707;50.830;4.364;2023-12-04T08:03:23;7.47;;;4.15;;
23078;SDS011;11707;50.830;4.364;2023-12-04T08:05:51;6.95;;;4.10;;
23078;SDS011;11707;50.830;4.364;2023-12-04T08:08:17;7.22;;;3.38;;
23078;SDS011;11707;50.830;4.364;2023-12-04T08:10:43;6.80;;;3.90;;
23078;SDS011;11707;50.830;4.364;2023-12-04T08:13:08;8.77;;;4.10;;
23078;SDS011;11707;50.830;4.364;2023-12-04T08:15:34;6.60;;;4.05;;
23078;SDS011;11707;50.830;4.364;2023-12-04T08:18:00;6.10;;;3.65;;
23078;SDS011;11707;50.830;4.364;2023-12-04T08:20:26;5.97;;;3.80;;
23078;SDS011;11707;50.830;4.364;2023-12-04T08:22:51;5.80;;;4.10;;
23078;SDS011;11707;50.830;4.364;2023-12-04T08:25:17;6.45;;;3.63;;
23078;SDS011;11707;50.830;4.364;2023-12-04T08:27:43;7.50;;;4.20;;
23078;SDS011;11707;50.830;4.364;2023-12-04T08:30:09;6.88;;;3.97;;
23078;SDS011;11707;50.830;4.364;2023-12-04T08:32:35;6.15;;;3.75;;
23078;SDS011;11707;50.830;4.364;2023-12-04T08:35:01;5.47;;;3.75;;
23078;SDS011;11707;50.830;4.364;2023-12-04T08:37:27;8.32;;;4.40;;
23078;SDS011;11707;50.830;4.364;2023-12-04T08:39:52;7.93;;;4.32;;
23078;SDS011;11707;50.830;4.364;2023-12-04T08:42:20;7.10;;;3.97;;
23078;SDS011;11707;50.830;4.364;2023-12-04T08:44:46;7.53;;;4.15;;
23078;SDS011;11707;50.830;4.364;2023-12-04T08:47:12;7.60;;;3.72;;
23078;SDS011;11707;50.830;4.364;2023-12-04T08:49:39;5.97;;;4.20;;
23078;SDS011;11707;50.830;4.364;2023-12-04T08:52:06;6.95;;;4.15;;
23078;SDS011;11707;50.830;4.364;2023-12-04T08:54:32;13.68;;;4.30;;
23078;SDS011;11707;50.830;4.364;2023-12-04T08:56:59;7.57;;;3.97;;
23078;SDS011;11707;50.830;4.364;2023-12-04T08:59:24;6.25;;;3.95;;
23078;SDS011;11707;50.830;4.364;2023-12-04T09:01:55;8.50;;;4.70;;
23078;SDS011;11707;50.830;4.364;2023-12-04T09:04:21;9.27;;;4.40;;
23078;SDS011;11707;50.830;4.364;2023-12-04T09:06:49;8.07;;;4.63;;
23078;SDS011;11707;50.830;4.364;2023-12-04T09:09:14;7.82;;;4.10;;
23078;SDS011;11707;50.830;4.364;2023-12-04T09:11:44;7.75;;;4.72;;
23078;SDS011;11707;50.830;4.364;2023-12-04T09:14:09;8.00;;;4.10;;
23078;SDS011;11707;50.830;4.364;2023-12-04T09:16:36;7.10;;;3.78;;
23078;SDS011;11707;50.830;4.364;2023-12-04T09:19:02;7.75;;;4.35;;
23078;SDS011;11707;50.830;4.364;2023-12-04T09:21:30;7.85;;;4.00;;
23078;SDS011;11707;50.830;4.364;2023-12-04T09:23:56;7.07;;;3.75;;
23078;SDS011;11707;50.830;4.364;2023-12-04T09:26:21;5.70;;;3.92;;
23078;SDS011;11707;50.830;4.364;2023-12-04T09:28:50;8.05;;;4.03;;
23078;SDS011;11707;50.830;4.364;2023-12-04T09:31:15;11.57;;;4.10;;
23078;SDS011;11707;50.830;4.364;2023-12-04T09:33:41;8.15;;;4.22;;
23078;SDS011;11707;50.830;4.364;2023-12-04T09:36:07;6.63;;;4.13;;
23078;SDS011;11707;50.830;4.364;2023-12-04T09:38:34;8.57;;;4.38;;
23078;SDS011;11707;50.830;4.364;2023-12-04T09:41:03;10.80;;;4.88;;
23078;SDS011;11707;50.830;4.364;2023-12-04T09:43:34;6.82;;;4.03;;
23078;SDS011;11707;50.830;4.364;2023-12-04T09:46:00;5.50;;;4.32;;
23078;SDS011;11707;50.830;4.364;2023-12-04T09:48:26;5.90;;;4.40;;
23078;SDS011;11707;50.830;4.364;2023-12-04T09:50:53;6.43;;;4.18;;
23078;SDS011;11707;50.830;4.364;2023-12-04T09:53:21;7.68;;;4.28;;
23078;SDS011;11707;50.830;4.364;2023-12-04T09:55:51;7.05;;;4.72;;
23078;SDS011;11707;50.830;4.364;2023-12-04T09:58:19;9.23;;;5.57;;
23078;SDS011;11707;50.830;4.364;2023-12-04T10:04:03;8.27;;;4.60;;
23078;SDS011;11707;50.830;4.364;2023-12-04T10:06:30;7.72;;;4.82;;
23078;SDS011;11707;50.830;4.364;2023-12-04T10:08:56;9.75;;;5.55;;
23078;SDS011;11707;50.830;4.364;2023-12-04T10:11:23;13.07;;;5.25;;
23078;SDS011;11707;50.830;4.364;2023-12-04T10:13:50;8.02;;;5.50;;
23078;SDS011;11707;50.830;4.364;2023-12-04T10:16:31;9.00;;;5.63;;
23078;SDS011;11707;50.830;4.364;2023-12-04T10:21:56;8.70;;;5.25;;
23078;SDS011;11707;50.830;4.364;2023-12-04T10:26:56;8.68;;;6.03;;
23078;SDS011;11707;50.830;4.364;2023-12-04T10:29:22;19.13;;;12.55;;
23078;SDS011;11707;50.830;4.364;2023-12-04T10:31:51;10.02;;;6.72;;
23078;SDS011;11707;50.830;4.364;2023-12-04T10:34:21;9.70;;;6.47;;
23078;SDS011;11707;50.830;4.364;2023-12-04T10:36:51;11.48;;;6.85;;
23078;SDS011;11707;50.830;4.364;2023-12-04T10:39:17;9.43;;;6.70;;
23078;SDS011;11707;50.830;4.364;2023-12-04T10:41:43;10.80;;;6.70;;
23078;SDS011;11707;50.830;4.364;2023-12-04T10:44:09;9.40;;;6.35;;
23078;SDS011;11707;50.830;4.364;2023-12-04T10:46:37;10.98;;;5.82;;
23078;SDS011;11707;50.830;4.364;2023-12-04T10:49:06;8.73;;;6.28;;
23078;SDS011;11707;50.830;4.364;2023-12-04T10:51:34;8.50;;;5.78;;
23078;SDS011;11707;50.830;4.364;2023-12-04T10:54:01;10.18;;;5.80;;
23078;SDS011;11707;50.830;4.364;2023-12-04T10:56:31;8.70;;;5.53;;
23078;SDS011;11707;50.830;4.364;2023-12-04T10:59:03;10.73;;;5.53;;
23078;SDS011;11707;50.830;4.364;2023-12-04T11:01:37;11.32;;;6.82;;
23078;SDS011;11707;50.830;4.364;2023-12-04T11:04:07;9.75;;;5.88;;
23078;SDS011;11707;50.830;4.364;2023-12-04T11:06:35;12.80;;;5.63;;
23078;SDS011;11707;50.830;4.364;2023-12-04T11:09:05;10.02;;;6.38;;
23078;SDS011;11707;50.830;4.364;2023-12-04T11:11:34;9.70;;;5.68;;
23078;SDS011;11707;50.830;4.364;2023-12-04T11:14:04;7.07;;;5.00;;
23078;SDS011;11707;50.830;4.364;2023-12-04T11:16:46;11.43;;;5.82;;
23078;SDS011;11707;50.830;4.364;2023-12-04T11:21:42;9.25;;;5.50;;
23078;SDS011;11707;50.830;4.364;2023-12-04T11:24:10;8.48;;;5.68;;
23078;SDS011;11707;50.830;4.364;2023-12-04T11:26:38;8.88;;;5.22;;
23078;SDS011;11707;50.830;4.364;2023-12-04T11:29:05;8.85;;;5.03;;
23078;SDS011;11707;50.830;4.364;2023-12-04T11:31:35;8.60;;;5.55;;
23078;SDS011;11707;50.830;4.364;2023-12-04T11:34:04;9.52;;;6.15;;
23078;SDS011;11707;50.830;4.364;2023-12-04T11:36:32;9.38;;;5.82;;
23078;SDS011;11707;50.830;4.364;2023-12-04T11:38:59;6.75;;;4.97;;
23078;SDS011;11707;50.830;4.364;2023-12-04T11:41:29;7.22;;;4.55;;
23078;SDS011;11707;50.830;4.364;2023-12-04T11:43:55;9.10;;;5.68;;
23078;SDS011;11707;50.830;4.364;2023-12-04T11:46:22;9.52;;;5.25;;
23078;SDS011;11707;50.830;4.364;2023-12-04T11:48:50;8.30;;;5.70;;
23078;SDS011;11707;50.830;4.364;2023-12-04T11:54:13;7.27;;;4.90;;
23078;SDS011;11707;50.830;4.364;2023-12-04T11:59:49;9.82;;;5.07;;
23078;SDS011;11707;50.830;4.364;2023-12-04T12:02:15;7.40;;;4.72;;
23078;SDS011;11707;50.830;4.364;2023-12-04T12:04:42;6.15;;;4.25;;
23078;SDS011;11707;50.830;4.364;2023-12-04T12:07:08;7.28;;;4.65;;
23078;SDS011;11707;50.830;4.364;2023-12-04T12:09:34;7.75;;;4.70;;
23078;SDS011;11707;50.830;4.364;2023-12-04T12:12:03;7.28;;;4.55;;
23078;SDS011;11707;50.830;4.364;2023-12-04T12:14:29;7.22;;;4.45;;
23078;SDS011;11707;50.830;4.364;2023-12-04T12:16:59;12.15;;;5.13;;
23078;SDS011;11707;50.830;4.364;2023-12-04T12:19:26;7.25;;;4.85;;
23078;SDS011;11707;50.830;4.364;2023-12-04T12:21:52;6.60;;;4.45;;
23078;SDS011;11707;50.830;4.364;2023-12-04T12:24:18;7.30;;;4.90;;
23078;SDS011;11707;50.830;4.364;2023-12-04T12:26:44;6.88;;;4.32;;
23078;SDS011;11707;50.830;4.364;2023-12-04T12:29:10;5.30;;;3.95;;
23078;SDS011;11707;50.830;4.364;2023-12-04T12:31:36;8.00;;;4.97;;
23078;SDS011;11707;50.830;4.364;2023-12-04T12:34:04;7.78;;;5.10;;
23078;SDS011;11707;50.830;4.364;2023-12-04T12:36:30;7.28;;;4.53;;
23078;SDS011;11707;50.830;4.364;2023-12-04T12:39:02;7.60;;;5.05;;
23078;SDS011;11707;50.830;4.364;2023-12-04T12:41:33;5.70;;;4.50;;
23078;SDS011;11707;50.830;4.364;2023-12-04T12:44:00;10.20;;;5.30;;
23078;SDS011;11707;50.830;4.364;2023-12-04T12:46:26;7.32;;;4.50;;
23078;SDS011;11707;50.830;4.364;2023-12-04T12:48:54;10.65;;;4.80;;
23078;SDS011;11707;50.830;4.364;2023-12-04T12:51:21;10.27;;;5.25;;
23078;SDS011;11707;50.830;4.364;2023-12-04T12:53:48;6.78;;;4.63;;
23078;SDS011;11707;50.830;4.364;2023-12-04T12:56:14;5.75;;;3.67;;
23078;SDS011;11707;50.830;4.364;2023-12-04T12:58:39;7.80;;;4.72;;
23078;SDS011;11707;50.830;4.364;2023-12-04T13:01:09;5.78;;;4.22;;
23078;SDS011;11707;50.830;4.364;2023-12-04T13:03:36;6.53;;;4.55;;
23078;SDS011;11707;50.830;4.364;2023-12-04T13:06:03;6.38;;;4.10;;
23078;SDS011;11707;50.830;4.364;2023-12-04T13:08:29;9.32;;;5.07;;
23078;SDS011;11707;50.830;4.364;2023-12-04T13:10:54;6.95;;;4.75;;
23078;SDS011;11707;50.830;4.364;2023-12-04T13:13:20;7.10;;;5.13;;
23078;SDS011;11707;50.830;4.364;2023-12-04T13:15:46;6.30;;;4.47;;
23078;SDS011;11707;50.830;4.364;2023-12-04T13:18:12;6.72;;;5.07;;
23078;SDS011;11707;50.830;4.364;2023-12-04T13:20:38;6.07;;;3.90;;
23078;SDS011;11707;50.830;4.364;2023-12-04T13:23:04;7.93;;;4.55;;
23078;SDS011;11707;50.830;4.364;2023-12-04T13:25:29;6.30;;;4.30;;
23078;SDS011;11707;50.830;4.364;2023-12-04T13:27:55;6.30;;;4.15;;
23078;SDS011;11707;50.830;4.364;2023-12-04T13:30:21;8.75;;;4.47;;
23078;SDS011;11707;50.830;4.364;2023-12-04T13:32:47;7.50;;;4.50;;
23078;SDS011;11707;50.830;4.364;2023-12-04T13:35:15;6.70;;;4.68;;
23078;SDS011;11707;50.830;4.364;2023-12-04T13:37:44;6.80;;;4.43;;
23078;SDS011;11707;50.830;4.364;2023-12-04T13:40:10;11.02;;;3.83;;
23078;SDS011;11707;50.830;4.364;2023-12-04T13:42:41;10.13;;;4.03;;
23078;SDS011;11707;50.830;4.364;2023-12-04T13:45:26;9.55;;;5.13;;
23078;SDS011;11707;50.830;4.364;2023-12-04T13:47:51;6.30;;;4.18;;
23078;SDS011;11707;50.830;4.364;2023-12-04T13:50:18;7.75;;;5.32;;
23078;SDS011;11707;50.830;4.364;2023-12-04T13:52:44;10.70;;;5.85;;
23078;SDS011;11707;50.830;4.364;2023-12-04T13:55:10;7.60;;;4.30;;
23078;SDS011;11707;50.830;4.364;2023-12-04T13:57:45;7.10;;;5.30;;
23078;SDS011;11707;50.830;4.364;2023-12-04T14:00:24;10.63;;;5.00;;
23078;SDS011;11707;50.830;4.364;2023-12-04T14:02:50;6.35;;;4.47;;
23078;SDS011;11707;50.830;4.364;2023-12-04T14:05:19;5.65;;;4.50;;
23078;SDS011;11707;50.830;4.364;2023-12-04T14:07:46;7.28;;;4.63;;
23078;SDS011;11707;50.830;4.364;2023-12-04T14:10:13;8.85;;;5.85;;
23078;SDS011;11707;50.830;4.364;2023-12-04T14:12:40;7.05;;;4.72;;
23078;SDS011;11707;50.830;4.364;2023-12-04T14:15:06;5.38;;;4.47;;
23078;SDS011;11707;50.830;4.364;2023-12-04T14:17:32;7.90;;;4.78;;
23078;SDS011;11707;50.830;4.364;2023-12-04T14:19:58;6.53;;;4.82;;
23078;SDS011;11707;50.830;4.364;2023-12-04T14:22:24;10.45;;;4.85;;
23078;SDS011;11707;50.830;4.364;2023-12-04T14:24:50;7.63;;;5.00;;
23078;SDS011;11707;50.830;4.364;2023-12-04T14:27:16;6.78;;;5.20;;
23078;SDS011;11707;50.830;4.364;2023-12-04T14:29:44;8.90;;;5.10;;
23078;SDS011;11707;50.830;4.364;2023-12-04T14:32:13;7.43;;;4.75;;
23078;SDS011;11707;50.830;4.364;2023-12-04T14:34:43;6.70;;;5.00;;
23078;SDS011;11707;50.830;4.364;2023-12-04T14:37:09;11.18;;;5.10;;
23078;SDS011;11707;50.830;4.364;2023-12-04T14:39:35;8.00;;;5.07;;
23078;SDS011;11707;50.830;4.364;2023-12-04T14:42:03;7.10;;;4.80;;
23078;SDS011;11707;50.830;4.364;2023-12-04T14:44:29;6.82;;;4.28;;
23078;SDS011;11707;50.830;4.364;2023-12-04T14:46:55;7.78;;;5.32;;
23078;SDS011;11707;50.830;4.364;2023-12-04T14:49:20;8.13;;;5.22;;
23078;SDS011;11707;50.830;4.364;2023-12-04T14:51:48;7.55;;;5.10;;
23078;SDS011;11707;50.830;4.364;2023-12-04T14:54:15;7.80;;;4.90;;
23078;SDS011;11707;50.830;4.364;2023-12-04T14:56:49;6.30;;;4.97;;
23078;SDS011;11707;50.830;4.364;2023-12-04T14:59:18;6.65;;;4.53;;
23078;SDS011;11707;50.830;4.364;2023-12-04T15:02:04;8.38;;;4.82;;